sensor_id;sensor_type;location;lat;lon;timestamp;pressure;altitude;pressure_sealevel;temperature;humidity
35989;BME280;22064;42.672;23.282;2023-06-14T00:00:21;94378.06;;;16.77;100.00
35989;BME280;22064;42.672;23.282;2023-06-14T00:02:48;94384.31;;;16.81;100.00
35989;BME280;22064;42.672;23.282;2023-06-14T00:05:13;94384.13;;;16.78;100.00
35989;BME280;22064;42.672;23.282;2023-06-14T00:07:41;94378.69;;;16.69;100.00
35989;BME280;22064;42.672;23.282;2023-06-14T00:10:11;94372.59;;;16.74;100.00
35989;BME280;22064;42.672;23.282;2023-06-14T00:12:38;94370.47;;;16.95;100.00
35989;BME280;22064;42.672;23.282;2023-06-14T00:15:05;94368.81;;;17.13;100.00
35989;BME280;22064;42.672;23.282;2023-06-14T00:17:31;94369.44;;;17.23;100.00
35989;BME280;22064;42.672;23.282;2023-06-14T00:19:58;94369.34;;;17.28;100.00
35989;BME280;22064;42.672;23.282;2023-06-14T00:22:24;94374.91;;;17.27;100.00
35989;BME280;22064;42.672;23.282;2023-06-14T00:24:53;94358.94;;;17.23;100.00
35989;BME280;22064;42.672;23.282;2023-06-14T00:27:19;94368.06;;;17.12;100.00
35989;BME280;22064;42.672;23.282;2023-06-14T00:29:45;94358.47;;;17.02;100.00
35989;BME280;22064;42.672;23.282;2023-06-14T00:32:11;94361.56;;;16.91;100.00
35989;BME280;22064;42.672;23.282;2023-06-14T00:34:37;94356.72;;;16.98;100.00
35989;BME280;22064;42.672;23.282;2023-06-14T00:37:03;94355.94;;;16.97;100.00
35989;BME280;22064;42.672;23.282;2023-06-14T00:39:29;94364.13;;;17.09;100.00
35989;BME280;22064;42.672;23.282;2023-06-14T00:41:55;94336.88;;;17.05;100.00
35989;BME280;22064;42.672;23.282;2023-06-14T00:44:20;94357.38;;;17.36;100.00
35989;BME280;22064;42.672;23.282;2023-06-14T00:46:47;94352.31;;;17.40;100.00
35989;BME280;22064;42.672;23.282;2023-06-14T00:49:14;94340.31;;;17.47;100.00
35989;BME280;22064;42.672;23.282;2023-06-14T00:51:42;94346.16;;;17.30;100.00
35989;BME280;22064;42.672;23.282;2023-06-14T00:54:09;94359.19;;;17.22;100.00
35989;BME280;22064;42.672;23.282;2023-06-14T00:56:36;94341.16;;;17.15;100.00
35989;BME280;22064;42.672;23.282;2023-06-14T00:59:03;94349.13;;;17.10;100.00
35989;BME280;22064;42.672;23.282;2023-06-14T01:01:32;94343.25;;;16.85;100.00
35989;BME280;22064;42.672;23.282;2023-06-14T01:04:00;94353.19;;;16.89;100.00
35989;BME280;22064;42.672;23.282;2023-06-14T01:11:59;94355.97;;;16.59;100.00
35989;BME280;22064;42.672;23.282;2023-06-14T01:14:27;94342.91;;;16.54;100.00
35989;BME280;22064;42.672;23.282;2023-06-14T01:16:54;94348.94;;;16.55;100.00
35989;BME280;22064;42.672;23.282;2023-06-14T01:19:22;94343.19;;;16.34;100.00
35989;BME280;22064;42.672;23.282;2023-06-14T01:21:51;94347.13;;;16.36;100.00
35989;BME280;22064;42.672;23.282;2023-06-14T01:24:18;94343.16;;;16.39;100.00
35989;BME280;22064;42.672;23.282;2023-06-14T01:26:53;94349.78;;;16.50;100.00
35989;BME280;22064;42.672;23.282;2023-06-14T01:29:25;94346.31;;;16.55;100.00
35989;BME280;22064;42.672;23.282;2023-06-14T01:31:53;94348.66;;;16.75;100.00
35989;BME280;22064;42.672;23.282;2023-06-14T01:34:20;94346.59;;;16.53;100.00
35989;BME280;22064;42.672;23.282;2023-06-14T01:36:50;94343.16;;;16.72;100.00
35989;BME280;22064;42.672;23.282;2023-06-14T01:39:17;94346.53;;;16.77;100.00
35989;BME280;22064;42.672;23.282;2023-06-14T01:41:45;94344.63;;;16.97;100.00
35989;BME280;22064;42.672;23.282;2023-06-14T01:44:14;94340.38;;;17.01;100.00
35989;BME280;22064;42.672;23.282;2023-06-14T01:46:42;94345.91;;;16.99;100.00
35989;BME280;22064;42.672;23.282;2023-06-14T01:49:08;94345.63;;;17.01;100.00
35989;BME280;22064;42.672;23.282;2023-06-14T01:51:34;94340.72;;;16.94;100.00
35989;BME280;22064;42.672;23.282;2023-06-14T01:54:01;94341.53;;;16.95;100.00
35989;BME280;22064;42.672;23.282;2023-06-14T01:56:26;94355.50;;;16.76;100.00
35989;BME280;22064;42.672;23.282;2023-06-14T01:58:53;94356.91;;;16.50;100.00
35989;BME280;22064;42.672;23.282;2023-06-14T02:01:20;94354.84;;;16.28;100.00
35989;BME280;22064;42.672;23.282;2023-06-14T02:03:49;94361.22;;;16.22;100.00
35989;BME280;22064;42.672;23.282;2023-06-14T02:06:16;94360.72;;;16.20;100.00
35989;BME280;22064;42.672;23.282;2023-06-14T02:08:42;94367.16;;;16.32;100.00
35989;BME280;22064;42.672;23.282;2023-06-14T02:11:08;94374.47;;;16.35;100.00
35989;BME280;22064;42.672;23.282;2023-06-14T02:13:34;94375.06;;;16.08;100.00
35989;BME280;22064;42.672;23.282;2023-06-14T02:16:01;94377.84;;;15.98;100.00
35989;BME280;22064;42.672;23.282;2023-06-14T02:18:28;94385.19;;;15.96;100.00
35989;BME280;22064;42.672;23.282;2023-06-14T02:20:55;94390.25;;;15.92;100.00
35989;BME280;22064;42.672;23.282;2023-06-14T02:23:22;94386.72;;;15.78;100.00
35989;BME280;22064;42.672;23.282;2023-06-14T02:25:47;94391.00;;;15.69;100.00
35989;BME280;22064;42.672;23.282;2023-06-14T02:28:13;94395.84;;;15.57;100.00
35989;BME280;22064;42.672;23.282;2023-06-14T02:30:39;94374.44;;;15.44;100.00
35989;BME280;22064;42.672;23.282;2023-06-14T02:33:06;94392.47;;;15.51;100.00
35989;BME280;22064;42.672;23.282;2023-06-14T02:35:32;94387.31;;;15.46;100.00
35989;BME280;22064;42.672;23.282;2023-06-14T02:37:58;94384.69;;;15.46;100.00
35989;BME280;22064;42.672;23.282;2023-06-14T02:40:24;94384.94;;;15.44;100.00
35989;BME280;22064;42.672;23.282;2023-06-14T02:42:50;94391.53;;;15.42;100.00
35989;BME280;22064;42.672;23.282;2023-06-14T02:45:17;94390.25;;;15.39;100.00
35989;BME280;22064;42.672;23.282;2023-06-14T02:47:43;94397.09;;;15.35;100.00
35989;BME280;22064;42.672;23.282;2023-06-14T02:50:11;94384.50;;;15.37;100.00
35989;BME280;22064;42.672;23.282;2023-06-14T02:52:37;94389.63;;;15.47;100.00
35989;BME280;22064;42.672;23.282;2023-06-14T02:55:04;94387.53;;;15.50;100.00
35989;BME280;22064;42.672;23.282;2023-06-14T02:57:30;94395.03;;;15.61;100.00
35989;BME280;22064;42.672;23.282;2023-06-14T02:59:56;94395.16;;;15.75;100.00
35989;BME280;22064;42.672;23.282;2023-06-14T03:02:22;94386.53;;;15.93;100.00
35989;BME280;22064;42.672;23.282;2023-06-14T03:04:48;94384.72;;;16.13;100.00
35989;BME280;22064;42.672;23.282;2023-06-14T03:07:17;94391.22;;;16.21;100.00
35989;BME280;22064;42.672;23.282;2023-06-14T03:09:46;94381.28;;;15.93;100.00
35989;BME280;22064;42.672;23.282;2023-06-14T03:12:13;94389.47;;;15.92;100.00
35989;BME280;22064;42.672;23.282;2023-06-14T03:14:39;94388.56;;;16.02;100.00
35989;BME280;22064;42.672;23.282;2023-06-14T03:17:06;94398.00;;;16.03;100.00
35989;BME280;22064;42.672;23.282;2023-06-14T03:19:34;94405.44;;;15.96;100.00
35989;BME280;22064;42.672;23.282;2023-06-14T03:22:00;94403.19;;;15.84;100.00
35989;BME280;22064;42.672;23.282;2023-06-14T03:24:30;94395.78;;;15.67;100.00
35989;BME280;22064;42.672;23.282;2023-06-14T03:26:58;94405.03;;;15.54;100.00
35989;BME280;22064;42.672;23.282;2023-06-14T03:29:26;94405.94;;;15.44;100.00
35989;BME280;22064;42.672;23.282;2023-06-14T03:32:00;94403.88;;;15.41;100.00
35989;BME280;22064;42.672;23.282;2023-06-14T03:34:33;94412.81;;;15.40;100.00
35989;BME280;22064;42.672;23.282;2023-06-14T03:37:01;94418.59;;;15.37;100.00
35989;BME280;22064;42.672;23.282;2023-06-14T03:39:28;94415.19;;;15.37;100.00
35989;BME280;22064;42.672;23.282;2023-06-14T03:41:55;94421.50;;;15.36;100.00
35989;BME280;22064;42.672;23.282;2023-06-14T03:44:21;94408.66;;;15.34;100.00
35989;BME280;22064;42.672;23.282;2023-06-14T03:46:47;94423.81;;;15.42;100.00
35989;BME280;22064;42.672;23.282;2023-06-14T03:49:14;94422.78;;;15.38;100.00
35989;BME280;22064;42.672;23.282;2023-06-14T03:51:43;94406.25;;;15.38;100.00
35989;BME280;22064;42.672;23.282;2023-06-14T03:54:09;94415.66;;;15.44;100.00
35989;BME280;22064;42.672;23.282;2023-06-14T03:56:36;94417.47;;;15.48;100.00
35989;BME280;22064;42.672;23.282;2023-06-14T03:59:03;94417.56;;;15.62;100.00
35989;BME280;22064;42.672;23.282;2023-06-14T04:01:29;94420.50;;;15.85;100.00
35989;BME280;22064;42.672;23.282;2023-06-14T04:03:59;94418.66;;;15.85;100.00
35989;BME280;22064;42.672;23.282;2023-06-14T04:06:25;94416.44;;;15.74;100.00
35989;BME280;22064;42.672;23.282;2023-06-14T04:08:59;94417.13;;;15.55;100.00
35989;BME280;22064;42.672;23.282;2023-06-14T04:11:29;94419.69;;;15.60;100.00
35989;BME280;22064;42.672;23.282;2023-06-14T04:13:58;94404.75;;;15.61;100.00
35989;BME280;22064;42.672;23.282;2023-06-14T04:16:24;94410.69;;;15.72;100.00
35989;BME280;22064;42.672;23.282;2023-06-14T04:18:50;94408.91;;;15.67;100.00
35989;BME280;22064;42.672;23.282;2023-06-14T04:21:18;94406.75;;;15.69;100.00
35989;BME280;22064;42.672;23.282;2023-06-14T04:23:46;94417.56;;;16.10;100.00
35989;BME280;22064;42.672;23.282;2023-06-14T04:26:14;94394.41;;;16.36;100.00
35989;BME280;22064;42.672;23.282;2023-06-14T04:28:41;94407.34;;;16.71;100.00
35989;BME280;22064;42.672;23.282;2023-06-14T04:31:08;94406.59;;;17.36;100.00
35989;BME280;22064;42.672;23.282;2023-06-14T04:33:37;94405.91;;;17.90;100.00
35989;BME280;22064;42.672;23.282;2023-06-14T04:36:15;94402.44;;;18.31;100.00
35989;BME280;22064;42.672;23.282;2023-06-14T04:38:43;94385.81;;;18.81;100.00
35989;BME280;22064;42.672;23.282;2023-06-14T04:41:12;94395.88;;;19.24;100.00
35989;BME280;22064;42.672;23.282;2023-06-14T04:43:39;94392.31;;;19.82;100.00
35989;BME280;22064;42.672;23.282;2023-06-14T04:46:07;94388.25;;;20.33;100.00
35989;BME280;22064;42.672;23.282;2023-06-14T04:48:39;94390.97;;;20.59;100.00
35989;BME280;22064;42.672;23.282;2023-06-14T04:51:09;94401.63;;;20.45;100.00
35989;BME280;22064;42.672;23.282;2023-06-14T04:53:35;94384.78;;;20.15;100.00
35989;BME280;22064;42.672;23.282;2023-06-14T04:56:03;94406.31;;;20.48;100.00
35989;BME280;22064;42.672;23.282;2023-06-14T04:58:30;94401.84;;;20.66;100.00
35989;BME280;22064;42.672;23.282;2023-06-14T05:00:57;94413.44;;;20.39;100.00
35989;BME280;22064;42.672;23.282;2023-06-14T05:03:25;94404.75;;;19.90;100.00
35989;BME280;22064;42.672;23.282;2023-06-14T05:05:52;94422.63;;;19.84;100.00
35989;BME280;22064;42.672;23.282;2023-06-14T05:08:20;94415.22;;;19.95;100.00
35989;BME280;22064;42.672;23.282;2023-06-14T05:10:49;94418.22;;;20.11;100.00
35989;BME280;22064;42.672;23.282;2023-06-14T05:13:16;94414.91;;;20.05;100.00
35989;BME280;22064;42.672;23.282;2023-06-14T05:15:44;94423.78;;;20.01;100.00
35989;BME280;22064;42.672;23.282;2023-06-14T05:18:10;94423.50;;;20.11;100.00
35989;BME280;22064;42.672;23.282;2023-06-14T05:20:36;94418.72;;;20.22;100.00
35989;BME280;22064;42.672;23.282;2023-06-14T05:23:08;94435.66;;;20.29;100.00
35989;BME280;22064;42.672;23.282;2023-06-14T05:25:34;94431.97;;;20.39;100.00
35989;BME280;22064;42.672;23.282;2023-06-14T05:28:00;94438.28;;;19.81;100.00
35989;BME280;22064;42.672;23.282;2023-06-14T05:30:26;94431.06;;;18.88;100.00
35989;BME280;22064;42.672;23.282;2023-06-14T05:32:52;94447.94;;;18.23;100.00
35989;BME280;22064;42.672;23.282;2023-06-14T05:35:18;94443.25;;;18.06;100.00
35989;BME280;22064;42.672;23.282;2023-06-14T05:37:44;94452.97;;;18.47;100.00
35989;BME280;22064;42.672;23.282;2023-06-14T05:40:10;94447.97;;;18.59;100.00
35989;BME280;22064;42.672;23.282;2023-06-14T05:42:37;94453.22;;;17.95;100.00
35989;BME280;22064;42.672;23.282;2023-06-14T05:45:03;94458.88;;;18.16;100.00
35989;BME280;22064;42.672;23.282;2023-06-14T05:47:29;94454.88;;;18.05;100.00
35989;BME280;22064;42.672;23.282;2023-06-14T05:49:54;94455.97;;;18.04;100.00
35989;BME280;22064;42.672;23.282;2023-06-14T05:52:20;94462.09;;;18.13;100.00
35989;BME280;22064;42.672;23.282;2023-06-14T05:54:47;94462.59;;;18.29;100.00
35989;BME280;22064;42.672;23.282;2023-06-14T05:57:13;94458.84;;;18.44;100.00
35989;BME280;22064;42.672;23.282;2023-06-14T05:59:38;94461.13;;;18.87;100.00
35989;BME280;22064;42.672;23.282;2023-06-14T06:02:05;94451.31;;;19.24;100.00
35989;BME280;22064;42.672;23.282;2023-06-14T06:04:31;94466.38;;;19.23;100.00
35989;BME280;22064;42.672;23.282;2023-06-14T06:06:57;94465.75;;;18.67;100.00
35989;BME280;22064;42.672;23.282;2023-06-14T06:09:23;94476.34;;;18.12;100.00
35989;BME280;22064;42.672;23.282;2023-06-14T06:11:49;94460.66;;;17.74;100.00
35989;BME280;22064;42.672;23.282;2023-06-14T06:14:15;94462.41;;;17.98;100.00
35989;BME280;22064;42.672;23.282;2023-06-14T06:16:41;94470.91;;;18.22;100.00
35989;BME280;22064;42.672;23.282;2023-06-14T06:19:07;94475.06;;;17.96;100.00
35989;BME280;22064;42.672;23.282;2023-06-14T06:21:33;94480.00;;;17.70;100.00
35989;BME280;22064;42.672;23.282;2023-06-14T06:23:59;94474.22;;;17.54;100.00
35989;BME280;22064;42.672;23.282;2023-06-14T06:26:29;94486.63;;;17.67;100.00
35989;BME280;22064;42.672;23.282;2023-06-14T06:28:55;94478.34;;;17.74;100.00
35989;BME280;22064;42.672;23.282;2023-06-14T06:31:21;94485.38;;;17.78;100.00
35989;BME280;22064;42.672;23.282;2023-06-14T06:33:48;94480.34;;;17.96;100.00
35989;BME280;22064;42.672;23.282;2023-06-14T06:36:14;94482.00;;;18.33;100.00
35989;BME280;22064;42.672;23.282;2023-06-14T06:38:39;94479.38;;;17.92;100.00
35989;BME280;22064;42.672;23.282;2023-06-14T06:41:06;94483.81;;;17.77;100.00
35989;BME280;22064;42.672;23.282;2023-06-14T06:43:32;94484.81;;;18.09;100.00
35989;BME280;22064;42.672;23.282;2023-06-14T06:45:58;94478.47;;;18.52;100.00
35989;BME280;22064;42.672;23.282;2023-06-14T06:48:24;94482.06;;;18.69;100.00
35989;BME280;22064;42.672;23.282;2023-06-14T06:50:50;94474.59;;;19.22;100.00
35989;BME280;22064;42.672;23.282;2023-06-14T06:53:16;94470.00;;;19.58;100.00
35989;BME280;22064;42.672;23.282;2023-06-14T06:55:44;94468.94;;;20.22;100.00
35989;BME280;22064;42.672;23.282;2023-06-14T06:58:12;94481.06;;;20.80;100.00
35989;BME280;22064;42.672;23.282;2023-06-14T07:00:38;94474.53;;;21.21;100.00
35989;BME280;22064;42.672;23.282;2023-06-14T07:03:05;94479.22;;;21.59;100.00
35989;BME280;22064;42.672;23.282;2023-06-14T07:05:31;94483.66;;;21.84;100.00
35989;BME280;22064;42.672;23.282;2023-06-14T07:07:57;94480.13;;;21.72;100.00
35989;BME280;22064;42.672;23.282;2023-06-14T07:10:24;94486.22;;;21.63;100.00
35989;BME280;22064;42.672;23.282;2023-06-14T07:12:50;94487.78;;;21.30;100.00
35989;BME280;22064;42.672;23.282;2023-06-14T07:15:16;94478.44;;;21.50;100.00
35989;BME280;22064;42.672;23.282;2023-06-14T07:17:42;94478.88;;;21.60;100.00
35989;BME280;22064;42.672;23.282;2023-06-14T07:20:09;94473.50;;;21.86;100.00
35989;BME280;22064;42.672;23.282;2023-06-14T07:22:40;94473.44;;;22.21;100.00
35989;BME280;22064;42.672;23.282;2023-06-14T07:25:10;94479.63;;;22.55;100.00
35989;BME280;22064;42.672;23.282;2023-06-14T07:27:43;94478.84;;;22.84;100.00
35989;BME280;22064;42.672;23.282;2023-06-14T07:30:08;94480.09;;;23.08;100.00
35989;BME280;22064;42.672;23.282;2023-06-14T07:32:36;94477.63;;;23.23;100.00
35989;BME280;22064;42.672;23.282;2023-06-14T07:35:02;94472.88;;;23.50;100.00
35989;BME280;22064;42.672;23.282;2023-06-14T07:37:28;94473.53;;;23.47;100.00
35989;BME280;22064;42.672;23.282;2023-06-14T07:39:54;94478.06;;;23.46;100.00
35989;BME280;22064;42.672;23.282;2023-06-14T07:42:20;94473.00;;;23.33;100.00
35989;BME280;22064;42.672;23.282;2023-06-14T07:44:46;94451.38;;;23.43;100.00
35989;BME280;22064;42.672;23.282;2023-06-14T07:47:12;94469.50;;;23.41;100.00
35989;BME280;22064;42.672;23.282;2023-06-14T07:49:38;94481.31;;;23.64;100.00
35989;BME280;22064;42.672;23.282;2023-06-14T07:52:04;94471.53;;;23.77;100.00
35989;BME280;22064;42.672;23.282;2023-06-14T07:54:30;94485.00;;;24.05;100.00
35989;BME280;22064;42.672;23.282;2023-06-14T07:56:58;94491.78;;;23.69;100.00
35989;BME280;22064;42.672;23.282;2023-06-14T07:59:26;94493.41;;;22.48;100.00
35989;BME280;22064;42.672;23.282;2023-06-14T08:01:52;94492.53;;;22.95;100.00
35989;BME280;22064;42.672;23.282;2023-06-14T08:04:18;94495.03;;;23.54;100.00
35989;BME280;22064;42.672;23.282;2023-06-14T08:06:44;94498.00;;;23.86;100.00
35989;BME280;22064;42.672;23.282;2023-06-14T08:09:12;94489.44;;;24.26;100.00
35989;BME280;22064;42.672;23.282;2023-06-14T08:11:38;94503.22;;;24.77;100.00
35989;BME280;22064;42.672;23.282;2023-06-14T08:14:04;94506.94;;;25.13;100.00
35989;BME280;22064;42.672;23.282;2023-06-14T08:16:30;94492.50;;;25.14;100.00
35989;BME280;22064;42.672;23.282;2023-06-14T08:18:56;94500.72;;;25.21;100.00
35989;BME280;22064;42.672;23.282;2023-06-14T08:21:22;94516.56;;;25.57;100.00
35989;BME280;22064;42.672;23.282;2023-06-14T08:23:48;94511.16;;;25.70;100.00
35989;BME280;22064;42.672;23.282;2023-06-14T08:26:14;94513.78;;;25.26;100.00
35989;BME280;22064;42.672;23.282;2023-06-14T08:28:40;94513.88;;;25.29;100.00
35989;BME280;22064;42.672;23.282;2023-06-14T08:31:06;94506.03;;;25.21;100.00
35989;BME280;22064;42.672;23.282;2023-06-14T08:33:32;94512.63;;;24.99;100.00
35989;BME280;22064;42.672;23.282;2023-06-14T08:36:01;94515.28;;;24.99;100.00
35989;BME280;22064;42.672;23.282;2023-06-14T08:38:26;94516.94;;;25.16;100.00
35989;BME280;22064;42.672;23.282;2023-06-14T08:40:57;94512.09;;;25.33;100.00
35989;BME280;22064;42.672;23.282;2023-06-14T08:43:24;94504.44;;;25.32;100.00
35989;BME280;22064;42.672;23.282;2023-06-14T08:45:54;94511.34;;;25.33;100.00
35989;BME280;22064;42.672;23.282;2023-06-14T08:48:26;94503.56;;;25.28;100.00
35989;BME280;22064;42.672;23.282;2023-06-14T08:50:55;94499.56;;;25.34;100.00
35989;BME280;22064;42.672;23.282;2023-06-14T08:53:37;94485.47;;;25.33;100.00
35989;BME280;22064;42.672;23.282;2023-06-14T08:56:08;94500.09;;;25.40;100.00
35989;BME280;22064;42.672;23.282;2023-06-14T08:58:43;94499.31;;;25.39;100.00
35989;BME280;22064;42.672;23.282;2023-06-14T09:01:11;94496.97;;;25.66;100.00
35989;BME280;22064;42.672;23.282;2023-06-14T09:03:42;94501.28;;;25.98;100.00
35989;BME280;22064;42.672;23.282;2023-06-14T09:06:09;94496.34;;;25.56;100.00
35989;BME280;22064;42.672;23.282;2023-06-14T09:08:42;94490.47;;;25.79;100.00
35989;BME280;22064;42.672;23.282;2023-06-14T09:11:13;94491.66;;;26.25;100.00
35989;BME280;22064;42.672;23.282;2023-06-14T09:13:40;94491.31;;;25.95;100.00
35989;BME280;22064;42.672;23.282;2023-06-14T09:16:07;94477.97;;;25.67;100.00
35989;BME280;22064;42.672;23.282;2023-06-14T09:18:44;94479.72;;;25.47;100.00
35989;BME280;22064;42.672;23.282;2023-06-14T09:21:16;94484.25;;;25.75;100.00
35989;BME280;22064;42.672;23.282;2023-06-14T09:23:45;94481.22;;;25.61;100.00
35989;BME280;22064;42.672;23.282;2023-06-14T09:28:43;94484.25;;;25.75;100.00
35989;BME280;22064;42.672;23.282;2023-06-14T09:31:19;94490.34;;;26.03;96.53
35989;BME280;22064;42.672;23.282;2023-06-14T09:33:47;94491.72;;;26.29;93.67
35989;BME280;22064;42.672;23.282;2023-06-14T09:36:22;94495.59;;;26.47;86.29
35989;BME280;22064;42.672;23.282;2023-06-14T09:38:55;94482.25;;;26.16;91.60
35989;BME280;22064;42.672;23.282;2023-06-14T09:44:02;94483.91;;;26.20;91.97
35989;BME280;22064;42.672;23.282;2023-06-14T09:46:29;94469.53;;;26.25;93.93
35989;BME280;22064;42.672;23.282;2023-06-14T09:48:56;94476.41;;;26.58;90.67
35989;BME280;22064;42.672;23.282;2023-06-14T09:51:22;94486.72;;;26.75;87.46
35989;BME280;22064;42.672;23.282;2023-06-14T09:53:49;94473.03;;;26.96;86.38
35989;BME280;22064;42.672;23.282;2023-06-14T09:56:21;94464.28;;;27.34;83.83
35989;BME280;22064;42.672;23.282;2023-06-14T09:58:50;94464.34;;;27.38;74.95
35989;BME280;22064;42.672;23.282;2023-06-14T10:01:20;94467.13;;;27.42;74.08
35989;BME280;22064;42.672;23.282;2023-06-14T10:03:46;94463.28;;;26.68;81.86
35989;BME280;22064;42.672;23.282;2023-06-14T10:06:14;94455.47;;;26.60;86.63
35989;BME280;22064;42.672;23.282;2023-06-14T10:08:41;94454.84;;;25.71;95.03
35989;BME280;22064;42.672;23.282;2023-06-14T10:11:07;94450.16;;;25.52;100.00
35989;BME280;22064;42.672;23.282;2023-06-14T10:13:34;94458.31;;;25.44;100.00
35989;BME280;22064;42.672;23.282;2023-06-14T10:16:17;94440.22;;;25.65;100.00
35989;BME280;22064;42.672;23.282;2023-06-14T10:18:53;94444.22;;;25.87;100.00
35989;BME280;22064;42.672;23.282;2023-06-14T10:21:35;94445.75;;;25.88;100.00
35989;BME280;22064;42.672;23.282;2023-06-14T10:24:06;94443.53;;;26.22;98.16
35989;BME280;22064;42.672;23.282;2023-06-14T10:26:33;94445.69;;;26.16;93.12
35989;BME280;22064;42.672;23.282;2023-06-14T10:29:06;94449.91;;;26.33;89.28
35989;BME280;22064;42.672;23.282;2023-06-14T10:31:49;94441.13;;;26.48;88.39
35989;BME280;22064;42.672;23.282;2023-06-14T10:34:25;94443.28;;;26.98;87.83
35989;BME280;22064;42.672;23.282;2023-06-14T10:39:42;94435.25;;;26.43;99.91
35989;BME280;22064;42.672;23.282;2023-06-14T10:42:08;94435.78;;;26.48;97.56
35989;BME280;22064;42.672;23.282;2023-06-14T10:49:51;94433.81;;;26.30;91.48
35989;BME280;22064;42.672;23.282;2023-06-14T10:52:23;94430.63;;;26.24;88.20
35989;BME280;22064;42.672;23.282;2023-06-14T10:55:14;94429.94;;;26.27;94.70
35989;BME280;22064;42.672;23.282;2023-06-14T10:57:42;94419.59;;;26.10;92.51
35989;BME280;22064;42.672;23.282;2023-06-14T11:00:10;94409.81;;;25.38;100.00
35989;BME280;22064;42.672;23.282;2023-06-14T11:02:48;94412.28;;;25.31;100.00
35989;BME280;22064;42.672;23.282;2023-06-14T11:05:24;94406.41;;;25.53;100.00
35989;BME280;22064;42.672;23.282;2023-06-14T11:10:37;94408.41;;;25.88;100.00
35989;BME280;22064;42.672;23.282;2023-06-14T11:13:04;94399.31;;;25.89;100.00
35989;BME280;22064;42.672;23.282;2023-06-14T11:15:30;94405.59;;;25.97;99.73
35989;BME280;22064;42.672;23.282;2023-06-14T11:17:57;94393.19;;;26.20;94.72
35989;BME280;22064;42.672;23.282;2023-06-14T11:20:26;94395.19;;;26.59;93.79
35989;BME280;22064;42.672;23.282;2023-06-14T11:22:53;94400.78;;;27.08;87.60
35989;BME280;22064;42.672;23.282;2023-06-14T11:25:19;94392.00;;;27.27;83.72
35989;BME280;22064;42.672;23.282;2023-06-14T11:27:45;94393.66;;;26.97;84.04
35989;BME280;22064;42.672;23.282;2023-06-14T11:30:13;94398.66;;;26.98;78.04
35989;BME280;22064;42.672;23.282;2023-06-14T11:32:39;94393.03;;;27.03;81.99
35989;BME280;22064;42.672;23.282;2023-06-14T11:35:05;94398.81;;;27.05;82.19
35989;BME280;22064;42.672;23.282;2023-06-14T11:37:32;94389.59;;;27.03;77.78
35989;BME280;22064;42.672;23.282;2023-06-14T11:40:03;94375.19;;;27.27;77.57
35989;BME280;22064;42.672;23.282;2023-06-14T11:42:37;94387.03;;;27.49;77.06
35989;BME280;22064;42.672;23.282;2023-06-14T11:45:04;94379.53;;;27.77;71.41
35989;BME280;22064;42.672;23.282;2023-06-14T11:47:33;94386.16;;;28.10;65.96
35989;BME280;22064;42.672;23.282;2023-06-14T11:50:03;94376.28;;;28.41;62.97
35989;BME280;22064;42.672;23.282;2023-06-14T11:52:30;94366.50;;;28.52;63.68
35989;BME280;22064;42.672;23.282;2023-06-14T11:54:56;94368.88;;;27.81;67.58
35989;BME280;22064;42.672;23.282;2023-06-14T11:57:23;94360.00;;;27.77;69.69
35989;BME280;22064;42.672;23.282;2023-06-14T11:59:50;94363.22;;;27.86;67.88
35989;BME280;22064;42.672;23.282;2023-06-14T12:02:16;94364.88;;;27.94;66.53
35989;BME280;22064;42.672;23.282;2023-06-14T12:04:43;94350.41;;;28.25;63.94
35989;BME280;22064;42.672;23.282;2023-06-14T12:07:13;94347.41;;;28.87;64.37
35989;BME280;22064;42.672;23.282;2023-06-14T12:10:03;94349.69;;;29.19;57.37
35989;BME280;22064;42.672;23.282;2023-06-14T12:12:38;94338.47;;;29.06;55.88
35989;BME280;22064;42.672;23.282;2023-06-14T12:15:05;94331.28;;;29.55;54.92
35989;BME280;22064;42.672;23.282;2023-06-14T12:17:33;94340.97;;;29.63;54.38
35989;BME280;22064;42.672;23.282;2023-06-14T12:20:05;94336.47;;;29.78;52.74
35989;BME280;22064;42.672;23.282;2023-06-14T12:22:33;94338.56;;;30.02;51.11
35989;BME280;22064;42.672;23.282;2023-06-14T12:24:59;94321.31;;;29.55;52.97
35989;BME280;22064;42.672;23.282;2023-06-14T12:27:25;94341.22;;;29.51;54.71
35989;BME280;22064;42.672;23.282;2023-06-14T12:30:04;94333.56;;;29.56;55.48
35989;BME280;22064;42.672;23.282;2023-06-14T12:32:30;94339.13;;;29.74;55.31
35989;BME280;22064;42.672;23.282;2023-06-14T12:34:56;94342.63;;;30.33;52.89
35989;BME280;22064;42.672;23.282;2023-06-14T12:37:22;94339.66;;;30.49;51.91
35989;BME280;22064;42.672;23.282;2023-06-14T12:39:49;94332.13;;;30.10;52.22
35989;BME280;22064;42.672;23.282;2023-06-14T12:42:16;94317.09;;;30.02;53.54
35989;BME280;22064;42.672;23.282;2023-06-14T12:44:42;94316.66;;;30.55;52.26
35989;BME280;22064;42.672;23.282;2023-06-14T12:47:08;94318.41;;;31.06;50.76
35989;BME280;22064;42.672;23.282;2023-06-14T12:49:34;94311.47;;;31.05;49.53
35989;BME280;22064;42.672;23.282;2023-06-14T12:52:00;94312.34;;;31.38;47.57
35989;BME280;22064;42.672;23.282;2023-06-14T12:54:26;94300.03;;;31.59;46.38
35989;BME280;22064;42.672;23.282;2023-06-14T12:56:52;94306.75;;;30.74;48.46
35989;BME280;22064;42.672;23.282;2023-06-14T12:59:18;94313.53;;;30.43;49.63
35989;BME280;22064;42.672;23.282;2023-06-14T13:01:44;94303.06;;;30.23;50.13
35989;BME280;22064;42.672;23.282;2023-06-14T13:04:10;94310.97;;;30.05;52.20
35989;BME280;22064;42.672;23.282;2023-06-14T13:06:37;94300.31;;;29.61;55.26